Ellsworth AFB, South Dakota
Current Conditions -  °F | °C
As of 7:58 PM on Saturday 25 Oct 2014 (Local Time) from KRCA Reporting Station
Clear Clear  
Wind Chill: 53°   Ceiling: Unl
Heat Index: 53°   Visibility: 10mi
Dew Point: 38°   Wind: 12mph
Humidity: 56%   Direction: 180°S
Pressure: 29.93"   Gusts: NA
Location:  44.14°N, 103.07°W
Report Text: KRCA 260158Z AUTO 18010KT 10SM CLR 12/03 A2993 RMK AO2 SLP145 T01190033 $
Loading
Personal Weather Stations






























Interactive Weather Map
Tropical Storm Tracking
New forecast layout! Learn more

10-Day Weather Forecast

Advertisements
Track Severe Weather on mobile